Time;durP1;ratioP1;P1;durP2;ratioP2;P2;SDS_P1;SDS_P2;PMS_P1;PMS_P2;Temp;Humidity;BMP_temperature;BMP_pressure;BME280_temperature;BME280_humidity;BME280_pressure;Samples;Min_cycle;Max_cycle;Signal;HPM_P1;HPM_P2
2024/03/30 00:00:04;;;;;;;;;1.00;1.00;;;;;14.20;100.00;98999.81;2102100;28;45967;-64
2024/03/30 00:01:05;;;;;;;;;2.75;2.00;;;;;14.00;100.00;98993.09;2099540;28;46709;-63
2024/03/30 00:02:05;;;;;;;;;1.33;1.33;;;;;13.92;100.00;99000.69;2104811;28;46482;-63
2024/03/30 00:03:06;;;;;;;;;2.00;2.00;;;;;13.92;100.00;98999.84;2104277;27;46582;-62
2024/03/30 00:04:08;;;;;;;;;2.33;2.33;;;;;13.91;100.00;98995.47;2099094;27;46178;-65
2024/03/30 00:05:08;;;;;;;;;2.00;2.00;;;;;13.86;100.00;98998.44;2101577;27;47018;-65
2024/03/30 00:06:08;;;;;;;;;2.67;1.00;;;;;13.83;100.00;98988.78;2098481;28;46516;-64
2024/03/30 00:07:09;;;;;;;;;1.00;1.00;;;;;13.85;100.00;98988.72;2098962;27;46730;-63
2024/03/30 00:08:09;;;;;;;;;1.00;1.00;;;;;13.83;100.00;98986.13;2103330;28;45460;-63
2024/03/30 00:09:10;;;;;;;;;1.00;1.00;;;;;13.88;100.00;98977.00;2100589;28;46414;-64
2024/03/30 00:10:10;;;;;;;;;1.00;1.00;;;;;13.68;100.00;98978.22;2104871;27;46513;-63
2024/03/30 00:11:10;;;;;;;;;1.00;1.00;;;;;13.65;100.00;98978.44;2104235;27;46198;-64
2024/03/30 00:12:11;;;;;;;;;1.00;1.00;;;;;13.63;100.00;98978.53;2102344;27;46267;-64
2024/03/30 00:13:12;;;;;;;;;1.00;1.00;;;;;13.74;100.00;98976.06;2099743;28;46714;-64
2024/03/30 00:14:12;;;;;;;;;2.00;0.75;;;;;13.72;100.00;98967.31;2097936;28;46259;-63
2024/03/30 00:15:13;;;;;;;;;1.33;1.00;;;;;13.66;100.00;98973.00;2099163;27;46892;-63
2024/03/30 00:16:13;;;;;;;;;0.00;0.00;;;;;13.76;100.00;98970.63;2100219;28;46460;-66
2024/03/30 00:17:13;;;;;;;;;1.00;1.00;;;;;13.77;100.00;98978.53;2105087;27;45824;-64
2024/03/30 00:18:14;;;;;;;;;1.00;1.00;;;;;13.74;100.00;98973.38;2104689;28;46439;-64
2024/03/30 00:19:15;;;;;;;;;1.33;1.33;;;;;13.77;100.00;98972.34;2102690;27;45986;-64
2024/03/30 00:20:15;;;;;;;;;0.00;0.00;;;;;13.78;100.00;98974.03;2101714;27;45838;-63
2024/03/30 00:21:16;;;;;;;;;0.00;0.00;;;;;13.76;100.00;98973.28;2101239;27;45703;-63
2024/03/30 00:22:16;;;;;;;;;2.00;2.00;;;;;13.78;100.00;98980.22;2101616;28;46465;-64
2024/03/30 00:23:16;;;;;;;;;1.00;1.00;;;;;13.75;100.00;98972.44;2105286;28;46715;-63
2024/03/30 00:24:17;;;;;;;;;1.33;1.00;;;;;13.68;100.00;98975.56;2104003;27;46610;-64
2024/03/30 00:25:20;;;;;;;;;2.00;2.00;;;;;13.68;100.00;98972.91;2104574;27;46331;-64
2024/03/30 00:26:20;;;;;;;;;1.00;1.00;;;;;13.71;100.00;98973.56;2111955;27;46914;-65
2024/03/30 00:27:21;;;;;;;;;1.00;1.00;;;;;13.74;100.00;98968.06;2109797;27;45953;-63
2024/03/30 00:28:21;;;;;;;;;1.00;1.00;;;;;13.81;100.00;98969.38;2098382;27;46699;-64
2024/03/30 00:29:22;;;;;;;;;1.67;1.67;;;;;13.76;100.00;98967.97;2100571;28;46543;-64
2024/03/30 00:30:23;;;;;;;;;2.00;2.00;;;;;13.73;100.00;98966.34;2104865;27;46177;-65
2024/03/30 00:31:27;;;;;;;;;2.00;2.00;;;;;13.68;100.00;98971.09;2102629;28;46907;-64
2024/03/30 00:32:28;;;;;;;;;1.50;1.50;;;;;13.67;100.00;98957.84;2103123;28;46984;-64
2024/03/30 00:33:28;;;;;;;;;8.67;6.33;;;;;13.67;100.00;98964.03;2102105;28;46276;-63
2024/03/30 00:34:28;;;;;;;;;5.33;3.33;;;;;13.72;100.00;98961.09;2103748;28;46834;-65
2024/03/30 00:35:29;;;;;;;;;3.00;3.00;;;;;13.68;100.00;98957.75;2103975;27;46372;-63
2024/03/30 00:36:29;;;;;;;;;4.67;4.67;;;;;13.69;100.00;98959.47;2100582;28;46202;-65
2024/03/30 00:37:30;;;;;;;;;5.33;5.33;;;;;13.67;100.00;98958.72;2103802;28;46324;-63
2024/03/30 00:38:30;;;;;;;;;4.75;4.00;;;;;13.68;100.00;98952.44;2102822;28;45313;-63
2024/03/30 00:39:31;;;;;;;;;2.33;2.00;;;;;13.69;100.00;98951.47;2099988;28;46609;-65
2024/03/30 00:40:32;;;;;;;;;2.67;2.00;;;;;13.70;100.00;98950.50;2096324;28;45974;-65
2024/03/30 00:41:32;;;;;;;;;2.67;2.67;;;;;13.68;100.00;98952.44;2102794;28;46471;-64
2024/03/30 00:42:32;;;;;;;;;1.00;1.00;;;;;13.70;100.00;98957.66;2101291;28;46603;-64
2024/03/30 00:43:33;;;;;;;;;1.00;1.00;;;;;13.82;100.00;98954.22;2097436;27;46959;-64
2024/03/30 00:44:33;;;;;;;;;1.00;1.00;;;;;13.83;100.00;98946.13;2101303;27;45885;-64
2024/03/30 00:45:38;;;;;;;;;3.00;1.00;;;;;13.84;100.00;98952.31;2101523;28;46969;-64
2024/03/30 00:46:38;;;;;;;;;1.25;0.25;;;;;13.82;100.00;98941.75;2102494;28;45729;-64
2024/03/30 00:47:39;;;;;;;;;2.00;2.00;;;;;13.79;100.00;98949.09;2108825;27;46087;-64
2024/03/30 00:48:39;;;;;;;;;1.50;1.00;;;;;13.77;100.00;98946.53;2110378;27;46882;-64
2024/03/30 00:49:40;;;;;;;;;2.67;1.67;;;;;13.74;100.00;98940.53;2102144;27;47040;-64
2024/03/30 00:50:40;;;;;;;;;1.00;1.00;;;;;13.75;100.00;98948.44;2101190;27;46616;-63
2024/03/30 00:51:41;;;;;;;;;2.00;1.00;;;;;13.71;100.00;98944.22;2099155;27;46223;-65
2024/03/30 00:52:41;;;;;;;;;1.33;1.33;;;;;13.68;100.00;98943.56;2103538;28;46402;-65
2024/03/30 00:53:41;;;;;;;;;2.00;2.00;;;;;13.63;100.00;98937.69;2095023;28;46954;-64
2024/03/30 00:54:41;;;;;;;;;0.00;0.00;;;;;13.67;100.00;98942.72;2102814;28;46756;-62
2024/03/30 00:55:42;;;;;;;;;1.00;1.00;;;;;13.65;100.00;98941.97;2103703;27;45800;-64
2024/03/30 00:56:42;;;;;;;;;0.67;0.67;;;;;13.69;100.00;98935.47;2097105;28;47313;-65
2024/03/30 00:57:42;;;;;;;;;1.00;1.00;;;;;13.51;100.00;98937.50;2102400;27;46770;-64
2024/03/30 00:58:43;;;;;;;;;1.00;1.00;;;;;13.51;100.00;98937.50;2096248;28;46332;-63
2024/03/30 00:59:43;;;;;;;;;1.00;1.00;;;;;13.50;100.00;98940.25;2102433;28;46331;-64
2024/03/30 01:00:44;;;;;;;;;1.00;1.00;;;;;13.47;100.00;98933.31;2103646;28;46304;-65
2024/03/30 01:01:44;;;;;;;;;1.00;1.00;;;;;13.49;100.00;98939.41;2104383;28;46034;-63
2024/03/30 01:02:44;;;;;;;;;1.67;1.67;;;;;13.49;100.00;98930.56;2103388;27;46588;-64
2024/03/30 01:03:45;;;;;;;;;1.00;1.00;;;;;13.50;100.00;98929.59;2104406;27;45165;-64
2024/03/30 01:04:45;;;;;;;;;1.00;1.00;;;;;13.50;100.00;98922.47;2094824;28;45667;-63
2024/03/30 01:05:45;;;;;;;;;1.00;1.00;;;;;13.44;100.00;98929.97;2093599;28;46719;-64
2024/03/30 01:06:46;;;;;;;;;0.67;0.33;;;;;13.37;100.00;98921.50;2097077;28;45250;-63
2024/03/30 01:07:48;;;;;;;;;2.00;2.00;;;;;13.36;100.00;98919.78;2104773;28;47103;-63
2024/03/30 01:08:48;;;;;;;;;1.00;1.00;;;;;13.35;100.00;98915.41;2103331;27;46714;-65
2024/03/30 01:09:49;;;;;;;;;1.00;1.00;;;;;13.47;100.00;98906.66;2104070;28;45612;-64
2024/03/30 01:10:57;;;;;;;;;0.00;0.00;;;;;13.55;100.00;98908.84;2098881;27;46636;-63
2024/03/30 01:11:57;;;;;;;;;2.25;1.00;;;;;13.45;100.00;98905.88;2101996;28;46520;-64
2024/03/30 01:12:58;;;;;;;;;1.00;1.00;;;;;13.44;100.00;98906.84;2103414;28;45572;-63
2024/03/30 01:13:58;;;;;;;;;3.00;1.00;;;;;13.59;100.00;98910.34;2098867;27;46558;-62
2024/03/30 01:14:59;;;;;;;;;1.00;1.00;;;;;13.58;100.00;98908.63;2101960;27;46767;-63
2024/03/30 01:16:08;;;;;;;;;0.00;0.00;;;;;13.73;100.00;98897.03;2101659;28;46642;-64
2024/03/30 01:17:09;;;;;;;;;0.50;0.50;;;;;13.75;100.00;98905.78;2104355;28;46476;-64
2024/03/30 01:18:09;;;;;;;;;1.00;1.00;;;;;13.79;100.00;98906.44;2104500;27;45317;-63
2024/03/30 01:19:10;;;;;;;;;0.00;0.00;;;;;13.79;100.00;98903.78;2103272;27;46602;-63
2024/03/30 01:20:11;;;;;;;;;1.00;1.00;;;;;13.75;100.00;98903.13;2103332;28;46263;-63
2024/03/30 01:21:11;;;;;;;;;0.00;0.00;;;;;13.76;100.00;98901.31;2103458;27;46457;-63
2024/03/30 01:22:12;;;;;;;;;1.00;1.00;;;;;13.73;100.00;98906.84;2103709;27;46810;-63
2024/03/30 01:23:13;;;;;;;;;0.00;0.00;;;;;13.73;100.00;98897.03;2104875;28;47135;-64
2024/03/30 01:24:13;;;;;;;;;0.00;0.00;;;;;13.75;100.00;98899.59;2104815;28;46850;-64
2024/03/30 01:25:14;;;;;;;;;0.00;0.00;;;;;13.53;100.00;98892.09;2093204;28;47051;-65
2024/03/30 01:26:18;;;;;;;;;1.00;1.00;;;;;13.50;100.00;98895.81;2094643;28;46674;-63
2024/03/30 01:27:20;;;;;;;;;0.00;0.00;;;;;13.44;100.00;98890.00;2103004;27;46580;-63
2024/03/30 01:28:21;;;;;;;;;0.00;0.00;;;;;13.42;100.00;98887.44;2103924;28;46406;-64
2024/03/30 01:29:25;;;;;;;;;0.00;0.00;;;;;13.41;100.00;98888.38;2105123;27;45990;-64
2024/03/30 01:30:26;;;;;;;;;0.00;0.00;;;;;13.39;100.00;98884.09;2103714;27;46598;-63
2024/03/30 01:31:26;;;;;;;;;1.00;1.00;;;;;13.38;100.00;98885.06;2103152;27;47335;-63
2024/03/30 01:32:27;;;;;;;;;1.67;0.67;;;;;13.50;100.00;98882.50;2101681;28;45826;-64
2024/03/30 01:33:28;;;;;;;;;0.33;0.33;;;;;13.38;100.00;98880.59;2102038;27;46700;-63
2024/03/30 01:34:30;;;;;;;;;1.00;1.00;;;;;13.37;100.00;98876.22;2104431;27;46390;-63
2024/03/30 01:35:30;;;;;;;;;1.00;1.00;;;;;13.37;100.00;98870.03;2102173;28;46971;-62
2024/03/30 01:36:31;;;;;;;;;1.00;1.00;;;;;13.37;100.00;98872.69;2104065;27;46741;-63
2024/03/30 01:37:31;;;;;;;;;2.00;1.00;;;;;13.39;100.00;98868.13;2105731;27;46485;-64
2024/03/30 01:38:32;;;;;;;;;1.00;1.00;;;;;13.39;100.00;98868.13;2102216;27;46363;-63
2024/03/30 01:39:33;;;;;;;;;2.00;1.00;;;;;13.38;100.00;98869.06;2104636;27;46228;-64
2024/03/30 01:40:34;;;;;;;;;0.00;0.00;;;;;13.38;100.00;98871.75;2102495;27;46225;-63
2024/03/30 01:41:35;;;;;;;;;0.00;0.00;;;;;13.38;100.00;98863.75;2101253;28;46387;-64
2024/03/30 01:42:38;;;;;;;;;1.00;1.00;;;;;13.52;100.00;98871.72;2105947;27;46750;-64
2024/03/30 01:43:38;;;;;;;;;0.00;0.00;;;;;13.52;100.00;98867.25;2105223;28;46915;-64
2024/03/30 01:44:39;;;;;;;;;0.33;0.00;;;;;13.53;100.00;98860.97;2100955;27;46209;-63
2024/03/30 01:45:44;;;;;;;;;1.00;0.00;;;;;13.55;100.00;98855.53;2105641;28;46446;-64
2024/03/30 01:46:44;;;;;;;;;0.50;0.50;;;;;13.54;100.00;98859.16;2104239;27;46466;-63
2024/03/30 01:47:45;;;;;;;;;0.00;0.00;;;;;13.57;100.00;98863.44;2105437;27;46894;-63
2024/03/30 01:48:46;;;;;;;;;0.00;0.00;;;;;13.58;100.00;98858.00;2105885;27;46425;-64
2024/03/30 01:49:47;;;;;;;;;0.00;0.00;;;;;13.58;100.00;98857.16;2104969;28;46486;-63
2024/03/30 01:50:48;;;;;;;;;1.00;1.00;;;;;13.60;100.00;98860.59;2105405;28;46791;-63
2024/03/30 01:51:50;;;;;;;;;1.00;0.00;;;;;13.59;100.00;98862.38;2103787;27;46888;-63
2024/03/30 01:52:51;;;;;;;;;0.00;0.00;;;;;13.60;100.00;98853.44;2104467;28;46667;-63
2024/03/30 01:53:51;;;;;;;;;0.00;0.00;;;;;13.60;100.00;98850.78;2104064;27;48518;-64
2024/03/30 01:54:52;;;;;;;;;0.67;0.67;;;;;13.61;100.00;98857.81;2105922;27;46744;-64
2024/03/30 01:55:53;;;;;;;;;1.00;1.00;;;;;13.62;100.00;98850.69;2104760;28;45828;-64
2024/03/30 01:56:55;;;;;;;;;1.00;1.00;;;;;13.61;100.00;98851.66;2102935;27;46835;-64
2024/03/30 01:57:58;;;;;;;;;1.25;1.00;;;;;13.60;100.00;98853.44;2104825;28;45308;-64
2024/03/30 01:59:02;;;;;;;;;2.00;1.00;;;;;13.63;100.00;98849.72;2101229;27;46123;-63
2024/03/30 02:00:05;;;;;;;;;1.75;1.00;;;;;13.64;100.00;98851.44;2102253;28;45754;-64
2024/03/30 02:01:06;;;;;;;;;2.00;0.50;;;;;13.64;100.00;98849.63;2104491;28;45925;-62
2024/03/30 02:02:10;;;;;;;;;1.00;1.00;;;;;13.69;100.00;98852.84;2099531;28;46851;-63
2024/03/30 02:03:10;;;;;;;;;1.00;1.00;;;;;13.68;100.00;98848.47;2105736;27;46583;-64
2024/03/30 02:04:11;;;;;;;;;2.00;2.00;;;;;13.70;100.00;98846.56;2105716;27;46612;-64
2024/03/30 02:05:13;;;;;;;;;1.00;1.00;;;;;13.71;100.00;98848.25;2105046;27;46709;-64
2024/03/30 02:06:14;;;;;;;;;1.00;1.00;;;;;13.71;100.00;98840.25;2105473;27;46462;-63
2024/03/30 02:07:15;;;;;;;;;1.75;1.75;;;;;13.70;100.00;98843.88;2103443;28;46860;-64
2024/03/30 02:08:16;;;;;;;;;1.00;1.00;;;;;13.71;100.00;98844.75;2103315;28;46650;-63
2024/03/30 02:09:17;;;;;;;;;1.25;1.25;;;;;13.73;100.00;98850.84;2104996;28;46458;-64
2024/03/30 02:10:18;;;;;;;;;0.33;0.33;;;;;13.73;100.00;98846.38;2105095;28;45074;-64
2024/03/30 02:11:19;;;;;;;;;1.00;1.00;;;;;13.71;100.00;98850.94;2105194;27;46559;-64
2024/03/30 02:12:20;;;;;;;;;2.50;1.75;;;;;13.60;100.00;98847.28;2098512;28;46922;-64
2024/03/30 02:13:21;;;;;;;;;1.25;1.25;;;;;13.52;100.00;98843.28;2104048;28;46368;-64
2024/03/30 02:14:21;;;;;;;;;1.00;1.00;;;;;13.49;100.00;98846.13;2102000;27;46285;-64
2024/03/30 02:15:22;;;;;;;;;2.00;2.00;;;;;13.48;100.00;98846.25;2105563;27;45843;-63
2024/03/30 02:16:24;;;;;;;;;2.50;1.00;;;;;13.44;100.00;98848.22;2104339;27;46263;-64
2024/03/30 02:17:25;;;;;;;;;2.00;2.00;;;;;13.44;100.00;98844.69;2106015;27;46689;-63
2024/03/30 02:18:25;;;;;;;;;1.00;1.00;;;;;13.58;100.00;98843.81;2106151;27;46881;-64
2024/03/30 02:19:28;;;;;;;;;1.00;1.00;;;;;13.62;100.00;98848.03;2104510;27;46579;-64
2024/03/30 02:20:29;;;;;;;;;1.25;1.25;;;;;13.61;100.00;98844.50;2098681;28;46758;-63
2024/03/30 02:21:29;;;;;;;;;1.00;1.00;;;;;13.63;100.00;98849.72;2102378;27;46304;-65
2024/03/30 02:22:29;;;;;;;;;1.00;1.00;;;;;13.64;100.00;98846.09;2104225;28;46785;-64
2024/03/30 02:23:30;;;;;;;;;0.00;0.00;;;;;13.65;100.00;98851.34;2104060;28;46573;-63
2024/03/30 02:24:30;;;;;;;;;1.00;1.00;;;;;13.64;100.00;98848.78;2104085;27;47144;-64
2024/03/30 02:25:30;;;;;;;;;1.00;1.00;;;;;13.66;100.00;98841.53;2104851;27;46846;-64
2024/03/30 02:26:31;;;;;;;;;2.00;0.67;;;;;13.68;100.00;98850.28;2105255;28;46407;-63
2024/03/30 02:27:31;;;;;;;;;0.33;0.33;;;;;13.67;100.00;98859.22;2105913;27;46523;-63
2024/03/30 02:28:32;;;;;;;;;1.00;1.00;;;;;13.66;100.00;98849.53;2102576;27;46317;-65
2024/03/30 02:29:33;;;;;;;;;0.33;0.00;;;;;13.59;100.00;98854.38;2105270;28;46572;-63
2024/03/30 02:30:33;;;;;;;;;1.00;0.67;;;;;13.63;100.00;98850.59;2103161;27;45646;-65
2024/03/30 02:31:34;;;;;;;;;0.00;0.00;;;;;13.60;100.00;98853.44;2102972;27;46257;-65
2024/03/30 02:32:35;;;;;;;;;0.00;0.00;;;;;13.57;100.00;98842.09;2103790;28;46415;-65
2024/03/30 02:33:36;;;;;;;;;0.00;0.00;;;;;13.67;100.00;98851.22;2105328;27;46270;-63
2024/03/30 02:34:37;;;;;;;;;0.00;0.00;;;;;13.60;100.00;98847.28;2104886;27;46322;-64
2024/03/30 02:35:37;;;;;;;;;0.00;0.00;;;;;13.67;100.00;98851.22;2103982;27;46566;-64
2024/03/30 02:36:38;;;;;;;;;1.00;1.00;;;;;13.66;100.00;98847.72;2105575;28;46468;-64
2024/03/30 02:37:38;;;;;;;;;0.00;0.00;;;;;13.67;100.00;98843.25;2105091;27;46474;-64
2024/03/30 02:38:39;;;;;;;;;0.00;0.00;;;;;13.57;100.00;98845.63;2105458;27;46442;-64
2024/03/30 02:39:39;;;;;;;;;0.00;0.00;;;;;13.57;100.00;98842.09;2102719;28;46542;-64
2024/03/30 02:40:47;;;;;;;;;0.00;0.00;;;;;13.58;100.00;98843.81;2102181;28;46239;-64
2024/03/30 02:41:48;;;;;;;;;0.00;0.00;;;;;13.52;100.00;98845.06;2100830;28;46742;-63
2024/03/30 02:42:49;;;;;;;;;0.00;0.00;;;;;13.47;100.00;98837.38;2093118;28;46596;-63
2024/03/30 02:43:54;;;;;;;;;0.00;0.00;;;;;13.41;100.00;98842.22;2092179;28;46844;-64
2024/03/30 02:44:54;;;;;;;;;0.00;0.00;;;;;13.42;100.00;98842.13;2104398;27;46607;-64
2024/03/30 02:45:54;;;;;;;;;0.00;0.00;;;;;13.42;100.00;98839.47;2103126;28;46281;-64
2024/03/30 02:46:55;;;;;;;;;0.00;0.00;;;;;13.44;100.00;98839.38;2103298;27;46940;-64
2024/03/30 02:47:55;;;;;;;;;1.00;1.00;;;;;13.48;100.00;98841.75;2104664;28;46429;-63
2024/03/30 02:48:55;;;;;;;;;2.00;0.00;;;;;13.45;100.00;98846.41;2113211;27;45816;-65
2024/03/30 02:49:56;;;;;;;;;0.00;0.00;;;;;13.39;100.00;98850.31;2105564;27;46434;-63
2024/03/30 02:50:56;;;;;;;;;0.33;0.33;;;;;13.28;100.00;98843.97;2101896;28;45997;-64
2024/03/30 02:51:56;;;;;;;;;1.00;0.00;;;;;13.32;100.00;98840.13;2103436;28;46109;-64
2024/03/30 02:52:57;;;;;;;;;0.00;0.00;;;;;13.31;100.00;98843.75;2097664;27;46367;-63
2024/03/30 02:53:57;;;;;;;;;0.67;0.00;;;;;13.29;100.00;98845.66;2102447;28;46516;-64
2024/03/30 02:54:57;;;;;;;;;0.00;0.00;;;;;13.32;100.00;98845.47;2097055;28;45778;-63
2024/03/30 02:55:58;;;;;;;;;0.00;0.00;;;;;13.32;100.00;98843.66;2097924;28;46301;-63
2024/03/30 02:56:58;;;;;;;;;0.67;0.67;;;;;13.20;100.00;98845.28;2102164;28;46243;-65
2024/03/30 02:57:58;;;;;;;;;0.00;0.00;;;;;13.28;100.00;98842.16;2097832;28;46285;-63
2024/03/30 02:58:59;;;;;;;;;0.00;0.00;;;;;13.29;100.00;98838.53;2101540;27;46046;-62
2024/03/30 02:59:59;;;;;;;;;0.00;0.00;;;;;13.29;100.00;98840.34;2098820;28;46615;-65
2024/03/30 03:01:00;;;;;;;;;0.33;0.33;;;;;13.28;100.00;98847.47;2102164;27;46916;-64
2024/03/30 03:02:01;;;;;;;;;1.00;1.00;;;;;13.23;100.00;98845.13;2100834;28;46018;-63
2024/03/30 03:03:01;;;;;;;;;0.00;0.00;;;;;13.21;100.00;98849.69;2101318;28;47208;-64
2024/03/30 03:04:03;;;;;;;;;0.00;0.00;;;;;13.17;100.00;98845.44;2102243;27;46401;-64
2024/03/30 03:05:03;;;;;;;;;0.00;0.00;;;;;13.21;100.00;98846.13;2100917;27;46351;-65
2024/03/30 03:06:04;;;;;;;;;0.67;0.67;;;;;13.17;100.00;98848.09;2102423;27;46451;-64
2024/03/30 03:07:05;;;;;;;;;0.00;0.00;;;;;13.17;100.00;98844.59;2101231;28;46874;-64
2024/03/30 03:08:06;;;;;;;;;0.00;0.00;;;;;13.09;100.00;98846.88;2104702;27;46618;-64
2024/03/30 03:09:07;;;;;;;;;0.67;0.67;;;;;13.06;100.00;98845.25;2095050;28;46205;-64
2024/03/30 03:10:07;;;;;;;;;1.00;1.00;;;;;13.09;100.00;98854.88;2095687;28;46352;-64
2024/03/30 03:11:08;;;;;;;;;0.00;0.00;;;;;13.13;100.00;98843.94;2100355;27;46413;-65
2024/03/30 03:12:08;;;;;;;;;1.00;1.00;;;;;13.13;100.00;98846.59;2092300;28;46031;-64
2024/03/30 03:13:09;;;;;;;;;0.67;0.67;;;;;13.09;100.00;98844.22;2095456;28;46666;-65
2024/03/30 03:14:09;;;;;;;;;1.00;1.00;;;;;13.10;100.00;98848.59;2104993;28;46424;-64
2024/03/30 03:15:09;;;;;;;;;0.67;0.67;;;;;13.04;100.00;98851.63;2105109;28;46156;-64
2024/03/30 03:16:09;;;;;;;;;0.00;0.00;;;;;13.02;100.00;98846.41;2104862;28;46296;-65
2024/03/30 03:17:10;;;;;;;;;1.00;1.00;;;;;13.02;100.00;98845.53;2101121;28;46281;-64
2024/03/30 03:18:10;;;;;;;;;0.00;0.00;;;;;13.01;100.00;98847.34;2102020;28;46339;-64
2024/03/30 03:19:10;;;;;;;;;1.00;1.00;;;;;13.00;100.00;98845.63;2098870;28;46267;-64
2024/03/30 03:20:11;;;;;;;;;1.00;1.00;;;;;13.14;100.00;98844.78;2099616;27;46794;-65
2024/03/30 03:21:11;;;;;;;;;0.33;0.33;;;;;13.14;100.00;98836.78;2102211;27;46019;-64
2024/03/30 03:22:11;;;;;;;;;0.33;0.33;;;;;13.17;100.00;98841.91;2103488;27;46949;-64
2024/03/30 03:23:12;;;;;;;;;1.00;1.00;;;;;13.14;100.00;98842.13;2099607;28;46860;-65
2024/03/30 03:24:13;;;;;;;;;0.00;0.00;;;;;13.13;100.00;98835.09;2102487;28;45520;-64
2024/03/30 03:25:13;;;;;;;;;0.25;0.25;;;;;13.12;100.00;98831.56;2105282;27;46278;-66
2024/03/30 03:26:14;;;;;;;;;1.00;1.00;;;;;13.12;100.00;98833.38;2104148;27;46627;-63
2024/03/30 03:27:14;;;;;;;;;0.00;0.00;;;;;13.13;100.00;98825.28;2105282;28;46645;-64
2024/03/30 03:28:14;;;;;;;;;0.00;0.00;;;;;13.11;100.00;98837.84;2105612;28;46392;-64
2024/03/30 03:29:15;;;;;;;;;1.67;1.00;;;;;13.14;100.00;98836.78;2095318;28;46563;-65
2024/03/30 03:30:15;;;;;;;;;0.00;0.00;;;;;13.15;100.00;98833.19;2095584;28;46589;-63
2024/03/30 03:31:16;;;;;;;;;1.67;1.67;;;;;13.16;100.00;98832.22;2101070;28;46320;-63
2024/03/30 03:32:16;;;;;;;;;3.00;1.00;;;;;13.23;100.00;98828.28;2101215;28;46208;-64
2024/03/30 03:33:16;;;;;;;;;0.67;0.67;;;;;13.19;100.00;98824.06;2105112;27;46411;-63
2024/03/30 03:34:17;;;;;;;;;1.00;1.00;;;;;13.17;100.00;98825.94;2104028;27;46278;-65
2024/03/30 03:35:17;;;;;;;;;1.33;1.33;;;;;13.17;100.00;98828.59;2094631;28;46489;-66
2024/03/30 03:36:17;;;;;;;;;0.33;0.33;;;;;13.17;100.00;98828.59;2095503;28;45997;-64
2024/03/30 03:37:18;;;;;;;;;1.00;1.00;;;;;13.17;100.00;98823.28;2101828;28;45886;-64
2024/03/30 03:38:18;;;;;;;;;1.00;1.00;;;;;13.18;100.00;98825.00;2104432;27;46012;-63
2024/03/30 03:39:19;;;;;;;;;1.00;1.00;;;;;13.17;100.00;98824.13;2104191;27;45067;-65
2024/03/30 03:40:19;;;;;;;;;1.00;1.00;;;;;13.16;100.00;98821.56;2101299;28;46739;-64
2024/03/30 03:41:20;;;;;;;;;0.00;0.00;;;;;13.15;100.00;98827.84;2104406;28;46964;-64
2024/03/30 03:42:20;;;;;;;;;1.00;0.33;;;;;13.05;100.00;98832.03;2104835;28;45502;-64
2024/03/30 03:43:21;;;;;;;;;1.00;1.00;;;;;13.08;100.00;98830.03;2104169;27;46364;-64
2024/03/30 03:44:21;;;;;;;;;1.00;1.00;;;;;13.08;100.00;98822.03;2104410;27;46843;-64
2024/03/30 03:45:22;;;;;;;;;0.33;0.00;;;;;13.08;100.00;98823.84;2104641;27;46350;-64
2024/03/30 03:46:22;;;;;;;;;0.00;0.00;;;;;13.09;100.00;98814.94;2104259;27;46769;-64
2024/03/30 03:47:23;;;;;;;;;0.33;0.33;;;;;13.06;100.00;98818.63;2095502;28;46278;-64
2024/03/30 03:48:24;;;;;;;;;1.67;0.67;;;;;13.06;100.00;98812.44;2094428;28;45637;-63
2024/03/30 03:49:24;;;;;;;;;1.00;1.00;;;;;13.06;100.00;98815.94;2105275;28;46703;-64
2024/03/30 03:50:24;;;;;;;;;1.00;1.00;;;;;13.03;100.00;98815.28;2103182;27;46604;-64
2024/03/30 03:51:25;;;;;;;;;1.00;1.00;;;;;13.04;100.00;98817.84;2104668;28;46784;-64
2024/03/30 03:52:25;;;;;;;;;1.00;0.00;;;;;13.16;100.00;98810.91;2101978;27;47059;-64
2024/03/30 03:53:25;;;;;;;;;2.00;1.00;;;;;13.18;100.00;98811.66;2104223;28;46776;-64
2024/03/30 03:54:26;;;;;;;;;2.00;1.00;;;;;13.16;100.00;98813.59;2103271;27;46633;-65
2024/03/30 03:55:26;;;;;;;;;0.00;0.00;;;;;13.20;100.00;98815.97;2104684;27;46885;-63
2024/03/30 03:56:26;;;;;;;;;1.00;1.00;;;;;13.21;100.00;98816.81;2102533;28;46231;-63
2024/03/30 03:57:27;;;;;;;;;1.00;1.00;;;;;13.28;100.00;98809.31;2104815;27;46788;-63
2024/03/30 03:58:27;;;;;;;;;1.00;1.00;;;;;13.40;100.00;98819.22;2103031;28;46635;-63
2024/03/30 03:59:27;;;;;;;;;2.00;1.00;;;;;13.50;100.00;98809.69;2102428;27;45754;-63
2024/03/30 04:00:28;;;;;;;;;1.00;1.00;;;;;13.42;100.00;98806.63;2105183;27;46687;-63
2024/03/30 04:01:28;;;;;;;;;3.67;1.00;;;;;13.42;100.00;98811.97;2104313;27;46364;-63
2024/03/30 04:02:28;;;;;;;;;3.00;2.00;;;;;13.55;100.00;98804.91;2103970;27;46273;-63
2024/03/30 04:03:29;;;;;;;;;0.67;0.67;;;;;13.59;100.00;98810.88;2112249;27;46465;-64
2024/03/30 04:04:29;;;;;;;;;2.00;2.00;;;;;13.65;100.00;98802.50;2112202;27;46387;-63
2024/03/30 04:05:29;;;;;;;;;1.67;1.67;;;;;13.68;100.00;98802.31;2104268;28;46793;-65
2024/03/30 04:06:30;;;;;;;;;1.00;1.00;;;;;13.59;100.00;98797.56;2099063;28;46628;-63
2024/03/30 04:07:30;;;;;;;;;1.00;1.00;;;;;13.45;100.00;98801.09;2097082;28;46175;-63
2024/03/30 04:08:30;;;;;;;;;3.00;1.00;;;;;13.43;100.00;98803.03;2103535;27;46249;-65
2024/03/30 04:09:31;;;;;;;;;2.00;2.00;;;;;13.51;100.00;98792.75;2104095;28;47238;-65
2024/03/30 04:10:31;;;;;;;;;3.00;2.00;;;;;13.70;100.00;98795.91;2102866;27;45457;-65
2024/03/30 04:11:31;;;;;;;;;1.00;1.00;;;;;13.59;100.00;98795.75;2099483;28;46335;-64
2024/03/30 04:12:31;;;;;;;;;2.00;2.00;;;;;13.61;100.00;98806.34;2103454;27;46585;-65
2024/03/30 04:13:34;;;;;;;;;3.33;2.00;;;;;13.62;100.00;98802.72;2094731;28;45829;-66
2024/03/30 04:14:34;;;;;;;;;1.75;1.75;;;;;13.62;100.00;98800.03;2092837;28;45217;-63
2024/03/30 04:15:35;;;;;;;;;1.67;1.00;;;;;13.63;100.00;98799.09;2102964;27;47207;-63
2024/03/30 04:16:36;;;;;;;;;2.00;2.00;;;;;13.66;100.00;98799.72;2103981;27;47201;-63
2024/03/30 04:17:36;;;;;;;;;3.00;3.00;;;;;13.67;100.00;98800.59;2104421;27;46772;-63
2024/03/30 04:18:37;;;;;;;;;3.00;2.67;;;;;13.68;100.00;98797.81;2104821;28;46453;-64
2024/03/30 04:19:37;;;;;;;;;2.33;2.33;;;;;13.70;100.00;98803.06;2099625;27;46442;-63
2024/03/30 04:20:37;;;;;;;;;3.00;3.00;;;;;13.71;100.00;98796.75;2097639;28;45821;-65
2024/03/30 04:21:37;;;;;;;;;2.00;2.00;;;;;13.71;100.00;98799.44;2103633;28;46361;-65
2024/03/30 04:22:38;;;;;;;;;3.00;2.00;;;;;13.73;100.00;98800.22;2101086;28;46875;-63
2024/03/30 04:23:38;;;;;;;;;2.00;2.00;;;;;13.74;100.00;98797.44;2097180;28;46367;-65
2024/03/30 04:24:38;;;;;;;;;3.00;3.00;;;;;13.75;100.00;98801.81;2099858;28;47024;-63
2024/03/30 04:25:39;;;;;;;;;3.00;3.00;;;;;13.76;100.00;98802.66;2098143;28;46588;-64
2024/03/30 04:26:39;;;;;;;;;2.67;2.67;;;;;13.75;100.00;98796.47;2101977;27;46863;-64
2024/03/30 04:27:40;;;;;;;;;3.00;3.00;;;;;13.76;100.00;98795.53;2104558;27;46204;-64
2024/03/30 04:28:41;;;;;;;;;2.50;2.50;;;;;13.76;100.00;98789.34;2101499;27;46890;-64
2024/03/30 04:29:41;;;;;;;;;3.33;3.33;;;;;13.75;100.00;98790.28;2100276;28;46345;-63
2024/03/30 04:30:42;;;;;;;;;3.00;3.00;;;;;13.76;100.00;98794.66;2098980;27;46339;-63
2024/03/30 04:31:42;;;;;;;;;2.00;2.00;;;;;13.76;100.00;98789.34;2103126;28;46326;-64
2024/03/30 04:32:43;;;;;;;;;4.00;4.00;;;;;13.77;100.00;98788.38;2090425;28;46681;-64
2024/03/30 04:33:43;;;;;;;;;2.33;2.33;;;;;13.78;100.00;98785.63;2098347;28;46617;-65
2024/03/30 04:34:45;;;;;;;;;3.67;3.67;;;;;13.80;100.00;98790.84;2104968;27;46793;-63
2024/03/30 04:36:00;;;;;;;;;3.00;3.00;;;;;13.82;100.00;98786.25;2111285;27;48327;-64
2024/03/30 04:37:01;;;;;;;;;3.50;3.50;;;;;13.80;100.00;98781.03;2108128;27;46311;-64
2024/03/30 04:38:01;;;;;;;;;2.00;2.00;;;;;13.80;100.00;98778.38;2096689;28;46304;-65
2024/03/30 04:39:04;;;;;;;;;2.00;2.00;;;;;13.82;100.00;98778.25;2101664;28;46657;-64
2024/03/30 04:40:05;;;;;;;;;2.25;2.25;;;;;13.81;100.00;98765.88;2093666;28;46935;-63
2024/03/30 04:41:07;;;;;;;;;1.00;1.00;;;;;13.75;100.00;98766.31;2090029;28;46382;-63
2024/03/30 04:42:09;;;;;;;;;3.00;3.00;;;;;13.74;100.00;98760.13;2102970;27;46566;-64